Spokane/Fairchild AFB, Washington
Current Conditions -  °F | °C
As of 1:55 PM on Sunday 25 Jan 2015 (Local Time) from KSKA Reporting Station
Broken Clouds Broken Clouds  
Wind Chill: 48°   Ceiling: 18000
Heat Index: 50°   Visibility: 10mi
Dew Point: 50°   Wind: 6mph
Humidity: 100%   Direction: 20°NNE
Pressure: 30.18"   Gusts: NA
Location:  47.62°N, 117.65°W
Report Text: KSKA 252155Z 02005KT 10SM BKN180 10/10 A3018 RMK SLP232 T00990099
Loading
Personal Weather Stations






























Interactive Weather Map New forecast layout! Learn more

10-Day Weather Forecast

Advertisements
Track Severe Weather on mobile